sensor_id;sensor_type;location;lat;lon;timestamp;pressure;altitude;pressure_sealevel;temperature;humidity
10518;BME280;5307;42.548;22.968;2022-11-15T00:00:11;94380.06;;;3.12;94.81
10518;BME280;5307;42.548;22.968;2022-11-15T00:02:38;94383.53;;;3.16;94.73
10518;BME280;5307;42.548;22.968;2022-11-15T00:05:05;94378.13;;;3.09;95.18
10518;BME280;5307;42.548;22.968;2022-11-15T00:07:32;94382.00;;;3.15;94.78
10518;BME280;5307;42.548;22.968;2022-11-15T00:09:58;94373.13;;;3.07;95.11
10518;BME280;5307;42.548;22.968;2022-11-15T00:12:26;94378.13;;;3.19;94.77
10518;BME280;5307;42.548;22.968;2022-11-15T00:14:56;94370.03;;;3.26;93.40
10518;BME280;5307;42.548;22.968;2022-11-15T00:17:23;94383.53;;;3.19;92.62
10518;BME280;5307;42.548;22.968;2022-11-15T00:19:50;94375.44;;;3.02;94.06
10518;BME280;5307;42.548;22.968;2022-11-15T00:22:17;94378.53;;;3.04;94.49
10518;BME280;5307;42.548;22.968;2022-11-15T00:24:44;94386.59;;;3.07;94.20
10518;BME280;5307;42.548;22.968;2022-11-15T00:27:11;94385.44;;;2.94;93.64
10518;BME280;5307;42.548;22.968;2022-11-15T00:29:38;94393.16;;;2.92;94.12
10518;BME280;5307;42.548;22.968;2022-11-15T00:32:10;94390.84;;;2.94;93.93
10518;BME280;5307;42.548;22.968;2022-11-15T00:34:36;94389.69;;;2.70;93.95
10518;BME280;5307;42.548;22.968;2022-11-15T00:37:03;94382.78;;;2.97;93.84
10518;BME280;5307;42.548;22.968;2022-11-15T00:39:30;94376.22;;;2.98;93.81
10518;BME280;5307;42.548;22.968;2022-11-15T00:41:57;94384.69;;;2.83;93.53
10518;BME280;5307;42.548;22.968;2022-11-15T00:44:24;94380.84;;;3.02;93.84
10518;BME280;5307;42.548;22.968;2022-11-15T00:46:50;94381.97;;;2.79;93.71
10518;BME280;5307;42.548;22.968;2022-11-15T00:49:19;94385.06;;;2.71;94.53
10518;BME280;5307;42.548;22.968;2022-11-15T00:51:45;94384.66;;;2.76;95.00
10518;BME280;5307;42.548;22.968;2022-11-15T00:54:12;94376.59;;;2.72;94.54
10518;BME280;5307;42.548;22.968;2022-11-15T00:56:39;94392.00;;;2.75;94.31
10518;BME280;5307;42.548;22.968;2022-11-15T00:59:06;94384.69;;;2.83;94.69
10518;BME280;5307;42.548;22.968;2022-11-15T01:01:33;94387.72;;;2.46;94.84
10518;BME280;5307;42.548;22.968;2022-11-15T01:04:00;94383.84;;;2.43;95.90
10518;BME280;5307;42.548;22.968;2022-11-15T01:06:28;94384.66;;;2.65;96.28
10518;BME280;5307;42.548;22.968;2022-11-15T01:08:55;94379.66;;;2.71;94.92
10518;BME280;5307;42.548;22.968;2022-11-15T01:11:22;94375.78;;;2.57;95.43
10518;BME280;5307;42.548;22.968;2022-11-15T01:13:49;94364.25;;;2.57;95.20
10518;BME280;5307;42.548;22.968;2022-11-15T01:16:17;94366.16;;;2.67;95.44
10518;BME280;5307;42.548;22.968;2022-11-15T01:18:45;94359.22;;;2.52;95.04
10518;BME280;5307;42.548;22.968;2022-11-15T01:21:14;94366.97;;;2.85;94.55
10518;BME280;5307;42.548;22.968;2022-11-15T01:23:43;94364.66;;;2.73;94.03
10518;BME280;5307;42.548;22.968;2022-11-15T01:26:12;94365.41;;;2.56;94.23
10518;BME280;5307;42.548;22.968;2022-11-15T01:28:42;94365.75;;;2.44;96.02
10518;BME280;5307;42.548;22.968;2022-11-15T01:31:12;94366.91;;;2.50;96.43
10518;BME280;5307;42.548;22.968;2022-11-15T01:33:39;94373.88;;;2.65;95.09
10518;BME280;5307;42.548;22.968;2022-11-15T01:36:07;94380.00;;;2.41;95.60
10518;BME280;5307;42.548;22.968;2022-11-15T01:38:34;94380.38;;;2.39;95.58
10518;BME280;5307;42.548;22.968;2022-11-15T01:41:03;94379.97;;;2.37;95.91
10518;BME280;5307;42.548;22.968;2022-11-15T01:43:32;94371.16;;;2.51;95.33
10518;BME280;5307;42.548;22.968;2022-11-15T01:46:02;94365.78;;;2.58;95.09
10518;BME280;5307;42.548;22.968;2022-11-15T01:48:33;94370.81;;;2.70;93.72
10518;BME280;5307;42.548;22.968;2022-11-15T01:51:02;94370.78;;;2.59;92.94
10518;BME280;5307;42.548;22.968;2022-11-15T01:53:29;94371.91;;;2.48;93.15
10518;BME280;5307;42.548;22.968;2022-11-15T01:55:58;94390.75;;;2.33;94.01
10518;BME280;5307;42.548;22.968;2022-11-15T01:58:29;94381.13;;;2.36;94.43
10518;BME280;5307;42.548;22.968;2022-11-15T02:00:56;94378.50;;;2.64;93.85
10518;BME280;5307;42.548;22.968;2022-11-15T02:03:30;94381.91;;;2.36;92.62
10518;BME280;5307;42.548;22.968;2022-11-15T02:05:59;94383.44;;;2.34;93.12
10518;BME280;5307;42.548;22.968;2022-11-15T02:08:27;94381.13;;;2.25;93.44
10518;BME280;5307;42.548;22.968;2022-11-15T02:10:53;94374.94;;;2.21;94.04
10518;BME280;5307;42.548;22.968;2022-11-15T02:13:20;94369.16;;;2.19;94.35
10518;BME280;5307;42.548;22.968;2022-11-15T02:15:54;94366.47;;;2.19;94.88
10518;BME280;5307;42.548;22.968;2022-11-15T02:18:28;94347.97;;;2.11;94.87
10518;BME280;5307;42.548;22.968;2022-11-15T02:21:10;94365.31;;;2.13;94.90
10518;BME280;5307;42.548;22.968;2022-11-15T02:29:55;94360.72;;;2.35;94.41
10518;BME280;5307;42.548;22.968;2022-11-15T02:32:31;94363.81;;;2.26;94.04
10518;BME280;5307;42.548;22.968;2022-11-15T02:35:03;94361.06;;;2.16;93.93
10518;BME280;5307;42.548;22.968;2022-11-15T02:37:38;94359.50;;;2.00;94.61
10518;BME280;5307;42.548;22.968;2022-11-15T02:40:10;94358.38;;;2.19;95.23
10518;BME280;5307;42.548;22.968;2022-11-15T02:42:42;94363.31;;;1.96;95.25
10518;BME280;5307;42.548;22.968;2022-11-15T02:45:32;94372.97;;;2.04;95.40
10518;BME280;5307;42.548;22.968;2022-11-15T02:48:04;94369.09;;;2.01;95.01
10518;BME280;5307;42.548;22.968;2022-11-15T02:50:32;94363.34;;;2.03;94.30
10518;BME280;5307;42.548;22.968;2022-11-15T02:52:59;94361.47;;;2.18;94.59
10518;BME280;5307;42.548;22.968;2022-11-15T02:55:28;94357.66;;;2.29;93.42
10518;BME280;5307;42.548;22.968;2022-11-15T02:58:08;94353.34;;;2.07;92.67
10518;BME280;5307;42.548;22.968;2022-11-15T03:00:46;94353.00;;;2.16;92.96
10518;BME280;5307;42.548;22.968;2022-11-15T03:06:29;94357.56;;;2.01;92.90
10518;BME280;5307;42.548;22.968;2022-11-15T03:09:04;94352.53;;;1.96;93.35
10518;BME280;5307;42.548;22.968;2022-11-15T03:11:36;94363.31;;;1.96;93.09
10518;BME280;5307;42.548;22.968;2022-11-15T03:14:13;94356.47;;;2.23;91.88
10518;BME280;5307;42.548;22.968;2022-11-15T03:16:48;94352.13;;;1.87;91.79
10518;BME280;5307;42.548;22.968;2022-11-15T03:19:23;94351.38;;;1.90;92.89
10518;BME280;5307;42.548;22.968;2022-11-15T03:21:55;94348.66;;;1.90;92.54
10518;BME280;5307;42.548;22.968;2022-11-15T03:24:23;94359.09;;;2.02;92.75
10518;BME280;5307;42.548;22.968;2022-11-15T03:26:53;94348.34;;;2.02;92.64
10518;BME280;5307;42.548;22.968;2022-11-15T03:29:24;94356.81;;;2.07;93.15
10518;BME280;5307;42.548;22.968;2022-11-15T03:31:56;94357.50;;;1.87;93.25
10518;BME280;5307;42.548;22.968;2022-11-15T03:34:29;94352.78;;;1.62;94.27
10518;BME280;5307;42.548;22.968;2022-11-15T03:36:58;94348.56;;;1.68;94.75
10518;BME280;5307;42.548;22.968;2022-11-15T03:39:25;94349.75;;;1.74;94.57
10518;BME280;5307;42.548;22.968;2022-11-15T03:42:01;94335.94;;;1.79;93.60
10518;BME280;5307;42.548;22.968;2022-11-15T03:44:39;94332.84;;;1.74;94.70
10518;BME280;5307;42.548;22.968;2022-11-15T03:47:12;94316.31;;;1.75;94.51
10518;BME280;5307;42.548;22.968;2022-11-15T03:49:44;94323.25;;;1.80;93.91
10518;BME280;5307;42.548;22.968;2022-11-15T03:52:13;94332.41;;;1.61;94.47
10518;BME280;5307;42.548;22.968;2022-11-15T03:54:52;94325.91;;;1.73;95.11
10518;BME280;5307;42.548;22.968;2022-11-15T03:57:19;94316.31;;;1.79;94.94
10518;BME280;5307;42.548;22.968;2022-11-15T03:59:46;94319.38;;;1.77;94.67
10518;BME280;5307;42.548;22.968;2022-11-15T04:02:13;94305.09;;;1.59;94.30
10518;BME280;5307;42.548;22.968;2022-11-15T04:04:41;94312.41;;;1.66;94.33
10518;BME280;5307;42.548;22.968;2022-11-15T04:07:08;94317.47;;;1.74;94.85
10518;BME280;5307;42.548;22.968;2022-11-15T04:09:35;94323.50;;;1.54;93.86
10518;BME280;5307;42.548;22.968;2022-11-15T04:12:23;94325.47;;;1.60;94.96
10518;BME280;5307;42.548;22.968;2022-11-15T04:14:56;94314.75;;;1.71;94.28
10518;BME280;5307;42.548;22.968;2022-11-15T04:17:34;94316.72;;;1.85;94.05
10518;BME280;5307;42.548;22.968;2022-11-15T04:20:03;94312.03;;;1.60;93.60
10518;BME280;5307;42.548;22.968;2022-11-15T04:22:48;94304.75;;;1.71;94.12
10518;BME280;5307;42.548;22.968;2022-11-15T04:25:32;94300.88;;;1.58;93.93
10518;BME280;5307;42.548;22.968;2022-11-15T04:27:59;94291.97;;;1.47;94.65
10518;BME280;5307;42.548;22.968;2022-11-15T04:30:26;94299.25;;;1.43;95.10
10518;BME280;5307;42.548;22.968;2022-11-15T04:32:52;94297.38;;;1.54;94.73
10518;BME280;5307;42.548;22.968;2022-11-15T04:35:20;94282.13;;;1.83;94.16
10518;BME280;5307;42.548;22.968;2022-11-15T04:37:47;94297.47;;;1.79;93.27
10518;BME280;5307;42.548;22.968;2022-11-15T04:40:13;94290.09;;;1.58;94.61
10518;BME280;5307;42.548;22.968;2022-11-15T04:42:40;94295.09;;;1.56;93.54
10518;BME280;5307;42.548;22.968;2022-11-15T04:45:08;94295.91;;;1.74;92.03
10518;BME280;5307;42.548;22.968;2022-11-15T04:47:35;94297.75;;;1.53;91.99
10518;BME280;5307;42.548;22.968;2022-11-15T04:50:02;94298.63;;;1.74;92.49
10518;BME280;5307;42.548;22.968;2022-11-15T04:52:31;94297.34;;;1.51;91.28
10518;BME280;5307;42.548;22.968;2022-11-15T04:54:58;94289.72;;;1.56;91.14
10518;BME280;5307;42.548;22.968;2022-11-15T04:57:24;94305.09;;;1.63;89.99
10518;BME280;5307;42.548;22.968;2022-11-15T04:59:51;94305.16;;;1.70;90.07
10518;BME280;5307;42.548;22.968;2022-11-15T05:02:18;94295.88;;;1.57;90.67
10518;BME280;5307;42.548;22.968;2022-11-15T05:04:45;94300.41;;;1.42;90.16
10518;BME280;5307;42.548;22.968;2022-11-15T05:07:11;94298.13;;;1.55;90.94
10518;BME280;5307;42.548;22.968;2022-11-15T05:09:39;94301.59;;;1.52;92.03
10518;BME280;5307;42.548;22.968;2022-11-15T05:12:06;94301.19;;;1.46;93.19
10518;BME280;5307;42.548;22.968;2022-11-15T05:14:33;94293.50;;;1.41;93.50
10518;BME280;5307;42.548;22.968;2022-11-15T05:17:00;94300.06;;;1.51;93.42
10518;BME280;5307;42.548;22.968;2022-11-15T05:23:30;94307.38;;;1.54;93.38
10518;BME280;5307;42.548;22.968;2022-11-15T05:26:00;94304.31;;;1.55;93.49
10518;BME280;5307;42.548;22.968;2022-11-15T05:28:27;94308.19;;;1.61;92.90
10518;BME280;5307;42.548;22.968;2022-11-15T05:31:00;94304.34;;;1.62;92.46
10518;BME280;5307;42.548;22.968;2022-11-15T05:33:27;94301.13;;;1.35;93.30
10518;BME280;5307;42.548;22.968;2022-11-15T05:35:56;94308.81;;;1.37;93.54
10518;BME280;5307;42.548;22.968;2022-11-15T05:38:26;94289.28;;;1.54;94.34
10518;BME280;5307;42.548;22.968;2022-11-15T05:40:53;94294.78;;;1.79;93.36
10518;BME280;5307;42.548;22.968;2022-11-15T05:43:22;94290.53;;;1.74;92.36
10518;BME280;5307;42.548;22.968;2022-11-15T05:45:49;94289.75;;;1.74;92.11
10518;BME280;5307;42.548;22.968;2022-11-15T05:48:16;94296.53;;;1.39;90.54
10518;BME280;5307;42.548;22.968;2022-11-15T05:50:45;94304.44;;;1.07;89.90
10518;BME280;5307;42.548;22.968;2022-11-15T05:53:15;94310.66;;;1.18;89.10
10518;BME280;5307;42.548;22.968;2022-11-15T05:55:42;94314.13;;;1.19;88.07
10518;BME280;5307;42.548;22.968;2022-11-15T05:58:09;94311.56;;;1.44;87.58
10518;BME280;5307;42.548;22.968;2022-11-15T06:00:37;94309.31;;;1.57;87.14
10518;BME280;5307;42.548;22.968;2022-11-15T06:03:04;94312.97;;;1.16;87.98
10518;BME280;5307;42.548;22.968;2022-11-15T06:05:31;94311.06;;;1.21;88.84
10518;BME280;5307;42.548;22.968;2022-11-15T06:07:58;94305.75;;;1.35;89.86
10518;BME280;5307;42.548;22.968;2022-11-15T06:10:25;94308.50;;;1.49;90.46
10518;BME280;5307;42.548;22.968;2022-11-15T06:12:56;94305.91;;;1.74;89.28
10518;BME280;5307;42.548;22.968;2022-11-15T06:15:23;94303.63;;;1.79;88.81
10518;BME280;5307;42.548;22.968;2022-11-15T06:17:51;94307.13;;;1.84;88.19
10518;BME280;5307;42.548;22.968;2022-11-15T06:20:22;94309.03;;;1.87;89.07
10518;BME280;5307;42.548;22.968;2022-11-15T06:22:49;94311.34;;;1.92;90.23
10518;BME280;5307;42.548;22.968;2022-11-15T06:25:16;94306.03;;;2.17;89.34
10518;BME280;5307;42.548;22.968;2022-11-15T06:27:43;94299.91;;;2.37;87.97
10518;BME280;5307;42.548;22.968;2022-11-15T06:30:10;94297.59;;;2.29;88.57
10518;BME280;5307;42.548;22.968;2022-11-15T06:32:37;94308.00;;;2.52;89.47
10518;BME280;5307;42.548;22.968;2022-11-15T06:35:06;94306.47;;;2.61;87.92
10518;BME280;5307;42.548;22.968;2022-11-15T06:37:33;94309.53;;;2.31;87.68
10518;BME280;5307;42.548;22.968;2022-11-15T06:40:00;94303.78;;;2.72;86.52
10518;BME280;5307;42.548;22.968;2022-11-15T06:42:26;94312.63;;;2.73;86.13
10518;BME280;5307;42.548;22.968;2022-11-15T06:44:53;94313.78;;;2.75;86.49
10518;BME280;5307;42.548;22.968;2022-11-15T06:47:20;94311.47;;;2.98;86.80
10518;BME280;5307;42.548;22.968;2022-11-15T06:49:47;94313.34;;;3.19;83.99
10518;BME280;5307;42.548;22.968;2022-11-15T06:52:15;94306.66;;;3.74;81.07
10518;BME280;5307;42.548;22.968;2022-11-15T06:54:43;94301.47;;;4.08;79.55
10518;BME280;5307;42.548;22.968;2022-11-15T06:57:10;94304.38;;;4.42;78.93
10518;BME280;5307;42.548;22.968;2022-11-15T06:59:37;94301.94;;;4.58;78.37
10518;BME280;5307;42.548;22.968;2022-11-15T07:02:04;94303.81;;;4.68;78.33
10518;BME280;5307;42.548;22.968;2022-11-15T07:04:31;94302.97;;;4.79;77.48
10518;BME280;5307;42.548;22.968;2022-11-15T07:06:57;94299.84;;;4.76;77.06
10518;BME280;5307;42.548;22.968;2022-11-15T07:09:25;94296.53;;;5.03;75.71
10518;BME280;5307;42.548;22.968;2022-11-15T07:11:52;94297.31;;;5.07;75.84
10518;BME280;5307;42.548;22.968;2022-11-15T07:14:19;94294.94;;;5.50;73.01
10518;BME280;5307;42.548;22.968;2022-11-15T07:16:46;94292.56;;;5.86;72.89
10518;BME280;5307;42.548;22.968;2022-11-15T07:19:12;94289.44;;;6.22;72.06
10518;BME280;5307;42.548;22.968;2022-11-15T07:21:39;94289.44;;;5.57;72.38
10518;BME280;5307;42.548;22.968;2022-11-15T07:24:06;94294.47;;;5.93;72.21
10518;BME280;5307;42.548;22.968;2022-11-15T07:26:35;94291.34;;;6.25;71.94
10518;BME280;5307;42.548;22.968;2022-11-15T07:29:01;94282.44;;;6.75;69.32
10518;BME280;5307;42.548;22.968;2022-11-15T07:31:28;94281.28;;;7.23;68.10
10518;BME280;5307;42.548;22.968;2022-11-15T07:33:55;94281.34;;;6.72;70.18
10518;BME280;5307;42.548;22.968;2022-11-15T07:36:22;94287.97;;;7.18;69.41
10518;BME280;5307;42.548;22.968;2022-11-15T07:38:49;94278.38;;;8.32;66.21
10518;BME280;5307;42.548;22.968;2022-11-15T07:41:16;94266.09;;;7.88;65.53
10518;BME280;5307;42.548;22.968;2022-11-15T07:43:44;94271.56;;;7.45;67.74
10518;BME280;5307;42.548;22.968;2022-11-15T07:46:11;94269.34;;;7.40;69.40
10518;BME280;5307;42.548;22.968;2022-11-15T07:48:39;94262.25;;;8.58;67.56
10518;BME280;5307;42.548;22.968;2022-11-15T07:51:06;94255.47;;;8.66;66.02
10518;BME280;5307;42.548;22.968;2022-11-15T07:53:33;94265.69;;;8.62;66.50
10518;BME280;5307;42.548;22.968;2022-11-15T07:59:06;94264.38;;;9.61;64.43
10518;BME280;5307;42.548;22.968;2022-11-15T08:01:33;94259.69;;;9.32;64.92
10518;BME280;5307;42.548;22.968;2022-11-15T08:04:00;94259.81;;;9.41;64.66
10518;BME280;5307;42.548;22.968;2022-11-15T08:06:27;94261.00;;;9.69;64.00
10518;BME280;5307;42.548;22.968;2022-11-15T08:08:53;94258.41;;;9.66;63.02
10518;BME280;5307;42.548;22.968;2022-11-15T08:11:20;94254.78;;;9.98;61.17
10518;BME280;5307;42.548;22.968;2022-11-15T08:13:47;94251.94;;;9.31;62.49
10518;BME280;5307;42.548;22.968;2022-11-15T08:16:15;94246.63;;;9.40;63.87
10518;BME280;5307;42.548;22.968;2022-11-15T08:18:58;94244.66;;;9.69;64.31
10518;BME280;5307;42.548;22.968;2022-11-15T08:25:06;94245.78;;;9.85;63.67
10518;BME280;5307;42.548;22.968;2022-11-15T08:27:33;94236.06;;;10.25;61.99
10518;BME280;5307;42.548;22.968;2022-11-15T08:30:00;94240.84;;;10.97;60.22
10518;BME280;5307;42.548;22.968;2022-11-15T08:32:28;94243.84;;;10.78;60.66
10518;BME280;5307;42.548;22.968;2022-11-15T08:34:56;94241.72;;;10.94;60.27
10518;BME280;5307;42.548;22.968;2022-11-15T08:37:23;94239.44;;;10.17;61.26
10518;BME280;5307;42.548;22.968;2022-11-15T08:39:50;94235.13;;;11.17;60.13
10518;BME280;5307;42.548;22.968;2022-11-15T08:42:17;94223.31;;;10.48;61.48
10518;BME280;5307;42.548;22.968;2022-11-15T08:44:43;94226.22;;;11.60;57.71
10518;BME280;5307;42.548;22.968;2022-11-15T08:47:11;94227.25;;;10.72;59.87
10518;BME280;5307;42.548;22.968;2022-11-15T08:49:40;94223.59;;;11.35;60.97
10518;BME280;5307;42.548;22.968;2022-11-15T08:52:07;94211.41;;;11.71;59.46
10518;BME280;5307;42.548;22.968;2022-11-15T08:54:33;94216.19;;;10.76;60.68
10518;BME280;5307;42.548;22.968;2022-11-15T08:57:00;94211.69;;;10.82;60.93
10518;BME280;5307;42.548;22.968;2022-11-15T08:59:27;94209.97;;;11.79;59.52
10518;BME280;5307;42.548;22.968;2022-11-15T09:01:54;94202.28;;;10.83;61.58
10518;BME280;5307;42.548;22.968;2022-11-15T09:04:21;94204.19;;;10.48;62.83
10518;BME280;5307;42.548;22.968;2022-11-15T09:06:49;94196.38;;;11.32;61.61
10518;BME280;5307;42.548;22.968;2022-11-15T09:09:16;94187.66;;;12.52;59.08
10518;BME280;5307;42.548;22.968;2022-11-15T09:11:42;94186.19;;;11.54;60.11
10518;BME280;5307;42.548;22.968;2022-11-15T09:14:10;94178.72;;;12.20;59.65
10518;BME280;5307;42.548;22.968;2022-11-15T09:16:37;94169.72;;;11.67;59.53
10518;BME280;5307;42.548;22.968;2022-11-15T09:19:04;94163.69;;;11.94;60.05
10518;BME280;5307;42.548;22.968;2022-11-15T09:21:31;94163.97;;;11.86;60.81
10518;BME280;5307;42.548;22.968;2022-11-15T09:23:59;94151.47;;;13.24;58.38
10518;BME280;5307;42.548;22.968;2022-11-15T09:26:26;94161.41;;;11.70;59.68
10518;BME280;5307;42.548;22.968;2022-11-15T09:28:53;94158.16;;;13.42;57.26
10518;BME280;5307;42.548;22.968;2022-11-15T09:31:19;94151.41;;;13.06;56.64
10518;BME280;5307;42.548;22.968;2022-11-15T09:33:46;94153.31;;;12.60;59.30
10518;BME280;5307;42.548;22.968;2022-11-15T09:36:13;94140.91;;;13.23;57.60
10518;BME280;5307;42.548;22.968;2022-11-15T09:38:40;94140.03;;;13.26;56.84
10518;BME280;5307;42.548;22.968;2022-11-15T09:41:50;94136.38;;;14.08;53.65
10518;BME280;5307;42.548;22.968;2022-11-15T09:44:34;94129.78;;;13.35;55.26
10518;BME280;5307;42.548;22.968;2022-11-15T09:47:15;94121.63;;;13.87;54.54
10518;BME280;5307;42.548;22.968;2022-11-15T09:49:51;94119.16;;;13.28;54.87
10518;BME280;5307;42.548;22.968;2022-11-15T09:52:18;94115.59;;;13.00;56.20
10518;BME280;5307;42.548;22.968;2022-11-15T09:54:48;94117.31;;;13.25;55.65
10518;BME280;5307;42.548;22.968;2022-11-15T09:57:19;94113.34;;;14.47;52.70
10518;BME280;5307;42.548;22.968;2022-11-15T09:59:55;94104.38;;;14.38;52.57
10518;BME280;5307;42.548;22.968;2022-11-15T10:02:36;94107.38;;;13.46;53.39
10518;BME280;5307;42.548;22.968;2022-11-15T10:05:11;94097.78;;;14.44;52.56
10518;BME280;5307;42.548;22.968;2022-11-15T10:07:48;94084.91;;;14.17;52.57
10518;BME280;5307;42.548;22.968;2022-11-15T10:10:24;94088.66;;;15.10;51.17
10518;BME280;5307;42.548;22.968;2022-11-15T10:12:54;94088.78;;;14.35;53.32
10518;BME280;5307;42.548;22.968;2022-11-15T10:15:21;94087.03;;;14.55;51.65
10518;BME280;5307;42.548;22.968;2022-11-15T10:18:13;94087.22;;;14.52;52.38
10518;BME280;5307;42.548;22.968;2022-11-15T10:20:48;94079.22;;;14.30;52.73
10518;BME280;5307;42.548;22.968;2022-11-15T10:23:16;94070.13;;;14.15;52.23
10518;BME280;5307;42.548;22.968;2022-11-15T10:25:44;94076.38;;;14.48;51.57
10518;BME280;5307;42.548;22.968;2022-11-15T10:28:15;94055.63;;;14.95;51.35
10518;BME280;5307;42.548;22.968;2022-11-15T10:30:43;94057.97;;;14.64;51.79
10518;BME280;5307;42.548;22.968;2022-11-15T10:33:26;94055.16;;;13.83;52.80
10518;BME280;5307;42.548;22.968;2022-11-15T10:36:14;94042.56;;;14.33;51.62
10518;BME280;5307;42.548;22.968;2022-11-15T10:38:57;94028.09;;;15.49;50.20
10518;BME280;5307;42.548;22.968;2022-11-15T10:41:34;94025.97;;;14.27;51.51
10518;BME280;5307;42.548;22.968;2022-11-15T10:44:18;94020.66;;;14.24;51.73
10518;BME280;5307;42.548;22.968;2022-11-15T10:46:47;94023.31;;;14.66;53.13
10518;BME280;5307;42.548;22.968;2022-11-15T10:49:17;94016.78;;;14.31;53.96
10518;BME280;5307;42.548;22.968;2022-11-15T10:51:47;94011.50;;;15.04;51.33
10518;BME280;5307;42.548;22.968;2022-11-15T10:54:19;94014.94;;;14.04;53.48
10518;BME280;5307;42.548;22.968;2022-11-15T10:56:50;94017.06;;;14.33;53.68
10518;BME280;5307;42.548;22.968;2022-11-15T10:59:24;94008.69;;;14.99;53.26
10518;BME280;5307;42.548;22.968;2022-11-15T11:01:53;94004.22;;;15.01;51.91
10518;BME280;5307;42.548;22.968;2022-11-15T11:04:19;94004.97;;;14.63;52.06
10518;BME280;5307;42.548;22.968;2022-11-15T11:06:47;93994.72;;;15.02;51.91
10518;BME280;5307;42.548;22.968;2022-11-15T11:09:25;93983.66;;;15.41;51.90
10518;BME280;5307;42.548;22.968;2022-11-15T11:11:54;93986.44;;;14.73;52.52
10518;BME280;5307;42.548;22.968;2022-11-15T11:14:24;93985.50;;;14.28;53.14
10518;BME280;5307;42.548;22.968;2022-11-15T11:16:54;93978.16;;;15.11;53.85
10518;BME280;5307;42.548;22.968;2022-11-15T11:26:38;93953.69;;;15.28;51.71
10518;BME280;5307;42.548;22.968;2022-11-15T11:29:17;93959.97;;;14.61;52.78
10518;BME280;5307;42.548;22.968;2022-11-15T11:31:53;93949.59;;;15.09;52.39
10518;BME280;5307;42.548;22.968;2022-11-15T11:34:34;93940.69;;;15.14;52.08
10518;BME280;5307;42.548;22.968;2022-11-15T11:37:07;93935.84;;;15.09;52.05
10518;BME280;5307;42.548;22.968;2022-11-15T11:39:44;93933.72;;;14.74;52.45
10518;BME280;5307;42.548;22.968;2022-11-15T11:42:17;93936.69;;;14.85;53.49
10518;BME280;5307;42.548;22.968;2022-11-15T11:44:54;93919.16;;;14.83;52.77
10518;BME280;5307;42.548;22.968;2022-11-15T11:47:31;93929.59;;;14.94;52.73
10518;BME280;5307;42.548;22.968;2022-11-15T11:50:03;93921.94;;;14.59;53.37
10518;BME280;5307;42.548;22.968;2022-11-15T11:52:41;93904.53;;;14.92;53.18
10518;BME280;5307;42.548;22.968;2022-11-15T11:55:15;93892.00;;;14.76;53.50
10518;BME280;5307;42.548;22.968;2022-11-15T11:57:48;93913.66;;;14.83;52.86
10518;BME280;5307;42.548;22.968;2022-11-15T12:00:20;93902.09;;;14.94;52.82
10518;BME280;5307;42.548;22.968;2022-11-15T12:02:55;93907.94;;;14.57;52.58
10518;BME280;5307;42.548;22.968;2022-11-15T12:05:32;93896.13;;;14.95;54.22
10518;BME280;5307;42.548;22.968;2022-11-15T12:08:15;93875.44;;;15.00;53.53
10518;BME280;5307;42.548;22.968;2022-11-15T12:10:46;93890.59;;;15.10;53.79
10518;BME280;5307;42.548;22.968;2022-11-15T12:13:16;93886.34;;;14.94;53.51
10518;BME280;5307;42.548;22.968;2022-11-15T12:15:48;93883.88;;;14.81;53.06
10518;BME280;5307;42.548;22.968;2022-11-15T12:18:20;93888.69;;;14.72;53.21
10518;BME280;5307;42.548;22.968;2022-11-15T12:20:52;93878.38;;;14.81;54.15
10518;BME280;5307;42.548;22.968;2022-11-15T12:23:24;93874.47;;;14.73;53.56
10518;BME280;5307;42.548;22.968;2022-11-15T12:25:57;93874.13;;;14.80;53.66
10518;BME280;5307;42.548;22.968;2022-11-15T12:28:33;93864.63;;;14.81;54.31
10518;BME280;5307;42.548;22.968;2022-11-15T12:31:05;93865.28;;;14.62;53.97
10518;BME280;5307;42.548;22.968;2022-11-15T12:33:41;93854.75;;;14.75;53.76
10518;BME280;5307;42.548;22.968;2022-11-15T12:36:10;93846.63;;;14.80;53.60
10518;BME280;5307;42.548;22.968;2022-11-15T12:38:55;93856.19;;;14.70;54.13
10518;BME280;5307;42.548;22.968;2022-11-15T12:41:25;93832.88;;;14.51;54.55
10518;BME280;5307;42.548;22.968;2022-11-15T12:43:52;93845.00;;;14.59;54.78
10518;BME280;5307;42.548;22.968;2022-11-15T12:46:22;93841.22;;;14.71;54.26
10518;BME280;5307;42.548;22.968;2022-11-15T12:48:56;93834.00;;;14.59;53.99
10518;BME280;5307;42.548;22.968;2022-11-15T12:57:47;93839.22;;;14.57;53.21
10518;BME280;5307;42.548;22.968;2022-11-15T13:00:44;93831.81;;;14.48;54.48
10518;BME280;5307;42.548;22.968;2022-11-15T13:03:34;93837.63;;;14.50;55.71
10518;BME280;5307;42.548;22.968;2022-11-15T13:08:50;93825.38;;;14.51;52.91
10518;BME280;5307;42.548;22.968;2022-11-15T13:11:48;93826.03;;;14.46;53.46
10518;BME280;5307;42.548;22.968;2022-11-15T13:17:32;93806.88;;;14.37;52.51
10518;BME280;5307;42.548;22.968;2022-11-15T13:20:11;93821.88;;;14.51;52.65
10518;BME280;5307;42.548;22.968;2022-11-15T13:22:46;93826.03;;;14.46;52.64
10518;BME280;5307;42.548;22.968;2022-11-15T13:28:33;93816.03;;;14.34;52.44
10518;BME280;5307;42.548;22.968;2022-11-15T13:31:03;93816.16;;;14.40;52.74
10518;BME280;5307;42.548;22.968;2022-11-15T13:33:31;93804.13;;;14.22;53.24
10518;BME280;5307;42.548;22.968;2022-11-15T13:36:02;93810.25;;;14.32;52.40
10518;BME280;5307;42.548;22.968;2022-11-15T13:38:33;93811.97;;;14.30;52.13
10518;BME280;5307;42.548;22.968;2022-11-15T13:41:11;93814.25;;;14.31;52.28
10518;BME280;5307;42.548;22.968;2022-11-15T13:43:40;93809.22;;;14.30;52.26
10518;BME280;5307;42.548;22.968;2022-11-15T13:46:12;93805.91;;;14.25;53.01
10518;BME280;5307;42.548;22.968;2022-11-15T13:48:40;93805.44;;;14.27;52.35
10518;BME280;5307;42.548;22.968;2022-11-15T13:51:12;93800.41;;;14.25;51.77
10518;BME280;5307;42.548;22.968;2022-11-15T13:53:46;93804.69;;;14.26;51.23
10518;BME280;5307;42.548;22.968;2022-11-15T13:56:15;93795.88;;;14.22;51.51
10518;BME280;5307;42.548;22.968;2022-11-15T13:58:43;93800.97;;;14.15;51.76
10518;BME280;5307;42.548;22.968;2022-11-15T14:01:15;93799.53;;;14.19;51.95
10518;BME280;5307;42.548;22.968;2022-11-15T14:03:50;93802.38;;;14.10;52.24
10518;BME280;5307;42.548;22.968;2022-11-15T14:06:20;93789.88;;;14.09;52.63